Time;durP1;ratioP1;P1;durP2;ratioP2;P2;SDS_P1;SDS_P2;PMS_P1;PMS_P2;Temp;Humidity;BMP_temperature;BMP_pressure;BME280_temperature;BME280_humidity;BME280_pressure;Samples;Min_cycle;Max_cycle;Signal;HPM_P1;HPM_P2
2024/04/05 00:02:14;;;;;;;1.80;0.70;;;;;;;;;;10353550;28;20042;-75
2024/04/05 00:07:16;;;;;;;1.10;0.77;;;;;;;;;;10357370;28;20038;-76
2024/04/05 00:12:19;;;;;;;3.72;0.98;;;;;;;;;;10356007;28;20068;-75
2024/04/05 00:17:22;;;;;;;2.80;0.85;;;;;;;;;;10356383;28;20046;-75
2024/04/05 00:22:25;;;;;;;2.60;1.15;;;;;;;;;;10349047;28;20038;-75
2024/04/05 00:27:28;;;;;;;2.67;0.98;;;;;;;;;;10357147;28;20040;-75
2024/04/05 00:32:32;;;;;;;3.08;1.10;;;;;;;;;;10358323;28;20034;-75
2024/04/05 00:37:34;;;;;;;2.60;1.08;;;;;;;;;;10361934;28;20077;-75
2024/04/05 00:42:37;;;;;;;3.45;0.70;;;;;;;;;;10358095;28;20046;-75
2024/04/05 00:47:41;;;;;;;3.13;0.80;;;;;;;;;;10357486;28;20046;-75
2024/04/05 00:52:43;;;;;;;3.63;1.20;;;;;;;;;;10357372;28;20053;-74
2024/04/05 00:57:45;;;;;;;2.85;0.80;;;;;;;;;;10359972;28;20053;-75
2024/04/05 01:02:49;;;;;;;4.32;0.98;;;;;;;;;;10358682;28;20378;-74
2024/04/05 01:07:53;;;;;;;2.58;0.75;;;;;;;;;;10361804;28;20768;-75
2024/04/05 01:12:59;;;;;;;2.60;1.00;;;;;;;;;;10364391;28;20065;-76
2024/04/05 01:18:05;;;;;;;3.08;0.80;;;;;;;;;;10355857;28;20407;-75
2024/04/05 01:23:10;;;;;;;3.67;0.90;;;;;;;;;;10363045;28;20042;-75
2024/04/05 01:28:15;;;;;;;1.83;0.65;;;;;;;;;;10360527;28;20050;-75
2024/04/05 01:33:17;;;;;;;2.10;0.68;;;;;;;;;;10360644;28;20045;-75
2024/04/05 01:38:20;;;;;;;2.72;0.85;;;;;;;;;;10346956;28;20447;-75
2024/04/05 01:43:23;;;;;;;3.22;0.90;;;;;;;;;;10365596;28;20045;-75
2024/04/05 01:48:26;;;;;;;1.20;0.70;;;;;;;;;;10351142;28;20425;-75
2024/04/05 01:53:28;;;;;;;2.90;0.80;;;;;;;;;;10352379;28;20092;-75
2024/04/05 01:58:32;;;;;;;1.65;0.75;;;;;;;;;;10330487;28;20046;-75
2024/04/05 02:03:34;;;;;;;2.22;0.80;;;;;;;;;;10356378;28;20181;-75
2024/04/05 02:08:37;;;;;;;2.13;0.70;;;;;;;;;;10351696;28;20048;-75
2024/04/05 02:13:40;;;;;;;2.60;0.77;;;;;;;;;;10357838;28;20056;-75
2024/04/05 02:18:43;;;;;;;2.47;1.08;;;;;;;;;;10356084;28;20053;-75
2024/04/05 02:23:45;;;;;;;2.25;0.77;;;;;;;;;;10347152;28;20046;-75
2024/04/05 02:28:49;;;;;;;16.27;7.72;;;;;;;;;;10355729;28;20045;-75
2024/04/05 02:33:51;;;;;;;14.32;8.05;;;;;;;;;;10335938;28;20042;-75
2024/04/05 02:38:54;;;;;;;9.75;3.95;;;;;;;;;;10350136;28;20041;-75
2024/04/05 02:43:58;;;;;;;5.90;2.35;;;;;;;;;;10356147;28;20665;-75
2024/04/05 02:49:00;;;;;;;2.97;1.67;;;;;;;;;;10349220;28;20482;-75
2024/04/05 02:54:03;;;;;;;2.22;1.25;;;;;;;;;;10341544;28;20394;-75
2024/04/05 02:59:07;;;;;;;3.88;0.98;;;;;;;;;;10346564;28;20050;-75
2024/04/05 03:04:09;;;;;;;3.75;1.20;;;;;;;;;;10346331;28;20117;-75
2024/04/05 03:09:12;;;;;;;3.15;1.00;;;;;;;;;;10352014;28;20042;-75
2024/04/05 03:14:17;;;;;;;1.63;0.88;;;;;;;;;;10341156;28;20534;-75
2024/04/05 03:19:19;;;;;;;2.50;0.70;;;;;;;;;;10354078;28;20069;-75
2024/04/05 03:24:21;;;;;;;3.15;1.08;;;;;;;;;;10345679;28;20053;-75
2024/04/05 03:29:25;;;;;;;4.03;0.90;;;;;;;;;;10346107;28;20042;-75
2024/04/05 03:34:27;;;;;;;1.45;0.70;;;;;;;;;;10349372;28;20042;-74
2024/04/05 03:39:30;;;;;;;2.05;0.90;;;;;;;;;;10352094;28;20564;-75
2024/04/05 03:44:34;;;;;;;3.25;1.15;;;;;;;;;;10350375;28;20050;-75
2024/04/05 03:49:37;;;;;;;4.38;1.23;;;;;;;;;;10344068;28;20056;-75
2024/04/05 03:54:39;;;;;;;1.42;0.68;;;;;;;;;;10354874;28;20046;-75
2024/04/05 03:59:43;;;;;;;1.73;0.60;;;;;;;;;;10331318;28;20138;-75
2024/04/05 04:04:45;;;;;;;2.92;0.65;;;;;;;;;;10358815;28;20034;-75
2024/04/05 04:09:48;;;;;;;2.72;1.02;;;;;;;;;;10361341;28;20133;-75
2024/04/05 04:14:51;;;;;;;2.28;0.70;;;;;;;;;;10362243;28;20034;-75
2024/04/05 04:19:58;;;;;;;1.95;0.70;;;;;;;;;;10359158;28;20042;-75
2024/04/05 04:25:01;;;;;;;2.50;0.65;;;;;;;;;;10361367;28;20045;-75
2024/04/05 04:30:09;;;;;;;2.42;0.70;;;;;;;;;;10361125;28;20046;-75
2024/04/05 04:35:12;;;;;;;2.15;0.77;;;;;;;;;;10350181;28;20036;-75
2024/04/05 04:40:14;;;;;;;2.67;0.80;;;;;;;;;;10357903;28;20041;-75
2024/04/05 04:45:18;;;;;;;2.00;0.77;;;;;;;;;;10359461;28;20037;-75
2024/04/05 04:50:20;;;;;;;4.32;0.90;;;;;;;;;;10363768;28;20042;-75
2024/04/05 04:55:23;;;;;;;0.82;0.55;;;;;;;;;;10362903;28;20048;-75
2024/04/05 05:00:27;;;;;;;2.20;0.90;;;;;;;;;;10355171;28;20080;-75
2024/04/05 05:05:29;;;;;;;2.45;0.70;;;;;;;;;;10357642;28;20410;-75
2024/04/05 05:10:32;;;;;;;4.78;1.08;;;;;;;;;;10357076;28;20076;-75
2024/04/05 05:15:36;;;;;;;3.40;0.90;;;;;;;;;;10356903;28;20050;-75
2024/04/05 05:26:23;;;;;;;4.95;1.40;;;;;;;;;;2939533;26;20168;-74
2024/04/05 05:31:39;;;;;;;2.97;0.98;;;;;;;;;;10393540;28;20503;-74
2024/04/05 05:36:43;;;;;;;2.17;0.88;;;;;;;;;;10393278;28;20087;-74
2024/04/05 05:41:47;;;;;;;2.10;0.73;;;;;;;;;;10381709;28;20235;-74
2024/04/05 05:46:56;;;;;;;4.82;1.23;;;;;;;;;;10398252;28;20467;-74
2024/04/05 05:52:01;;;;;;;2.60;1.15;;;;;;;;;;10398647;28;20524;-74
2024/04/05 05:57:04;;;;;;;3.47;1.25;;;;;;;;;;10382405;28;20056;-74
2024/04/05 06:02:08;;;;;;;3.13;1.30;;;;;;;;;;10395384;28;20057;-74
2024/04/05 06:07:11;;;;;;;2.55;1.15;;;;;;;;;;10391160;28;20524;-74
2024/04/05 06:12:13;;;;;;;1.85;1.00;;;;;;;;;;10399683;28;20052;-74
2024/04/05 06:17:17;;;;;;;2.25;1.00;;;;;;;;;;10398803;28;20049;-74
2024/04/05 06:22:19;;;;;;;3.97;1.40;;;;;;;;;;10382603;28;20053;-74
2024/04/05 06:27:22;;;;;;;3.72;1.63;;;;;;;;;;10401361;28;20044;-74
2024/04/05 06:32:26;;;;;;;3.90;1.50;;;;;;;;;;10380001;28;20045;-74
2024/04/05 06:37:28;;;;;;;3.90;1.67;;;;;;;;;;10394920;28;20049;-74
2024/04/05 06:42:31;;;;;;;6.35;1.95;;;;;;;;;;10393493;28;20052;-74
2024/04/05 06:47:35;;;;;;;4.40;1.60;;;;;;;;;;10396686;28;20074;-74
2024/04/05 06:52:37;;;;;;;4.13;1.48;;;;;;;;;;10396069;28;20505;-74
2024/04/05 06:57:40;;;;;;;3.63;1.50;;;;;;;;;;10399324;28;20053;-74
2024/04/05 07:02:43;;;;;;;3.55;1.45;;;;;;;;;;10402075;28;20061;-74
2024/04/05 07:07:46;;;;;;;4.05;1.73;;;;;;;;;;10395243;28;20045;-74
2024/04/05 07:12:51;;;;;;;4.90;1.27;;;;;;;;;;10398016;28;20424;-74
2024/04/05 07:17:56;;;;;;;2.03;1.10;;;;;;;;;;10403596;28;20051;-74
2024/04/05 07:22:58;;;;;;;2.78;1.20;;;;;;;;;;10397028;28;20080;-74
2024/04/05 07:28:01;;;;;;;4.97;1.20;;;;;;;;;;10400568;28;20057;-74
2024/04/05 07:33:05;;;;;;;1.95;1.13;;;;;;;;;;10378624;28;20047;-74
2024/04/05 07:38:09;;;;;;;3.03;1.15;;;;;;;;;;10399235;28;20401;-74
2024/04/05 07:43:11;;;;;;;3.22;0.80;;;;;;;;;;10396073;28;20044;-74
2024/04/05 07:48:15;;;;;;;1.95;0.90;;;;;;;;;;10395075;28;20084;-74
2024/04/05 07:53:18;;;;;;;1.80;0.88;;;;;;;;;;10396372;28;20095;-74
2024/04/05 07:58:21;;;;;;;1.80;0.75;;;;;;;;;;10394781;28;20043;-75
2024/04/05 08:03:25;;;;;;;1.73;0.77;;;;;;;;;;10394861;28;20107;-74
2024/04/05 08:08:28;;;;;;;1.98;0.85;;;;;;;;;;10396303;28;20037;-74
2024/04/05 08:13:30;;;;;;;5.00;1.35;;;;;;;;;;10391417;28;20064;-73
2024/04/05 08:18:34;;;;;;;1.98;0.80;;;;;;;;;;10395681;28;20060;-74
2024/04/05 08:23:36;;;;;;;2.83;1.08;;;;;;;;;;10404105;28;20555;-74
2024/04/05 08:28:39;;;;;;;2.53;0.90;;;;;;;;;;10383969;28;20406;-74
2024/04/05 08:33:43;;;;;;;1.52;0.52;;;;;;;;;;10395227;28;20061;-74
2024/04/05 08:38:47;;;;;;;1.83;0.80;;;;;;;;;;10396124;28;20049;-74
2024/04/05 08:43:52;;;;;;;2.38;0.85;;;;;;;;;;10394080;28;20045;-74
2024/04/05 08:48:57;;;;;;;;;;;;;;;;;;10393148;28;20053;-74
2024/04/05 08:54:00;;;;;;;1.48;0.60;;;;;;;;;;10402153;28;20376;-74
2024/04/05 08:59:06;;;;;;;2.00;0.82;;;;;;;;;;10404727;28;20092;-74
2024/04/05 09:04:10;;;;;;;2.55;0.98;;;;;;;;;;10394766;28;20070;-74
2024/04/05 09:09:24;;;;;;;3.45;1.10;;;;;;;;;;10406823;28;20056;-74
2024/04/05 09:14:27;;;;;;;1.33;0.70;;;;;;;;;;10398203;28;20048;-74
2024/04/05 09:19:31;;;;;;;0.75;0.50;;;;;;;;;;10394707;28;20057;-74
2024/04/05 09:24:33;;;;;;;1.73;0.60;;;;;;;;;;10398016;28;20049;-74
2024/04/05 09:29:36;;;;;;;1.25;0.70;;;;;;;;;;10398127;28;20054;-74
2024/04/05 09:34:41;;;;;;;3.47;1.23;;;;;;;;;;10403722;28;20049;-74
2024/04/05 09:39:46;;;;;;;1.55;0.70;;;;;;;;;;10400674;28;20468;-74
2024/04/05 09:44:55;;;;;;;2.17;0.60;;;;;;;;;;10405298;28;20520;-74
2024/04/05 09:49:59;;;;;;;2.15;0.52;;;;;;;;;;10396853;28;20049;-74
2024/04/05 09:55:04;;;;;;;1.65;0.75;;;;;;;;;;10394839;28;20044;-74
2024/04/05 10:00:14;;;;;;;1.65;0.68;;;;;;;;;;10395617;28;20048;-74
2024/04/05 10:05:29;;;;;;;1.30;0.77;;;;;;;;;;10397939;28;20046;-74
2024/04/05 10:10:33;;;;;;;1.58;0.60;;;;;;;;;;10400994;28;20096;-74
2024/04/05 10:15:35;;;;;;;1.38;0.50;;;;;;;;;;10401720;28;20037;-74
2024/04/05 10:20:39;;;;;;;1.75;0.63;;;;;;;;;;10404037;28;20052;-74
2024/04/05 10:25:42;;;;;;;1.45;0.60;;;;;;;;;;10405389;28;20546;-74
2024/04/05 10:30:45;;;;;;;5.07;0.70;;;;;;;;;;10394880;28;20061;-74
2024/04/05 10:35:49;;;;;;;3.80;0.90;;;;;;;;;;10393343;28;20045;-74
2024/04/05 10:40:58;;;;;;;2.60;0.90;;;;;;;;;;10392757;28;20045;-74
2024/04/05 10:46:01;;;;;;;1.70;0.70;;;;;;;;;;10395365;28;20112;-74
2024/04/05 10:51:06;;;;;;;1.40;0.80;;;;;;;;;;10401554;28;20049;-74
2024/04/05 10:56:11;;;;;;;1.33;0.60;;;;;;;;;;10418414;28;20045;-74
2024/04/05 11:01:14;;;;;;;1.17;0.50;;;;;;;;;;10392690;28;20050;-74
2024/04/05 11:06:18;;;;;;;1.10;0.50;;;;;;;;;;10393147;28;20287;-74
2024/04/05 11:11:21;;;;;;;1.67;0.50;;;;;;;;;;10389553;28;20053;-74
2024/04/05 11:16:23;;;;;;;1.42;0.45;;;;;;;;;;10390581;28;20066;-74
2024/04/05 11:21:27;;;;;;;1.17;0.60;;;;;;;;;;10438522;22;20045;-75
2024/04/05 11:26:32;;;;;;;0.77;0.40;;;;;;;;;;10378623;28;20178;-75
2024/04/05 11:31:35;;;;;;;1.75;0.45;;;;;;;;;;10395720;28;20045;-75
2024/04/05 11:36:39;;;;;;;0.55;0.30;;;;;;;;;;10383856;28;20103;-75
2024/04/05 11:41:42;;;;;;;1.10;0.68;;;;;;;;;;10389962;28;20430;-75
2024/04/05 11:46:44;;;;;;;0.73;0.52;;;;;;;;;;10388312;28;20124;-75
2024/04/05 11:51:49;;;;;;;2.08;0.70;;;;;;;;;;10387949;28;20049;-75
2024/04/05 11:56:52;;;;;;;2.10;0.87;;;;;;;;;;10394268;28;20038;-75
2024/04/05 12:01:54;;;;;;;2.03;0.77;;;;;;;;;;10392478;28;20049;-75
2024/04/05 12:06:59;;;;;;;2.88;0.85;;;;;;;;;;10388607;28;20132;-75
2024/04/05 12:12:02;;;;;;;3.85;1.08;;;;;;;;;;10390598;28;20137;-75
2024/04/05 12:17:04;;;;;;;1.30;0.90;;;;;;;;;;10388437;28;20208;-75
2024/04/05 12:22:08;;;;;;;2.08;0.70;;;;;;;;;;10390325;28;20046;-75
2024/04/05 12:27:11;;;;;;;2.20;0.80;;;;;;;;;;10395535;28;20577;-75
2024/04/05 12:32:14;;;;;;;2.45;0.60;;;;;;;;;;10400865;28;20187;-75
2024/04/05 12:37:21;;;;;;;1.80;0.80;;;;;;;;;;10396245;28;20141;-75
2024/04/05 12:42:24;;;;;;;1.67;0.90;;;;;;;;;;10399977;28;20121;-75
2024/04/05 12:47:26;;;;;;;2.50;0.80;;;;;;;;;;10372962;28;20049;-75
2024/04/05 12:52:30;;;;;;;1.80;0.85;;;;;;;;;;10399606;28;20041;-75
2024/04/05 12:57:33;;;;;;;2.20;1.10;;;;;;;;;;10398478;28;20551;-75
2024/04/05 13:02:36;;;;;;;2.50;0.80;;;;;;;;;;10370316;28;20079;-75
2024/04/05 13:07:39;;;;;;;3.38;0.80;;;;;;;;;;10394710;28;20075;-75
2024/04/05 13:12:42;;;;;;;3.90;1.00;;;;;;;;;;10409726;28;20049;-75
2024/04/05 13:17:44;;;;;;;1.35;0.77;;;;;;;;;;10415166;28;20142;-75
2024/04/05 13:22:48;;;;;;;0.90;0.60;;;;;;;;;;10408478;28;20057;-75
2024/04/05 13:27:51;;;;;;;1.20;0.70;;;;;;;;;;10418385;28;20408;-75
2024/04/05 13:32:56;;;;;;;0.93;0.55;;;;;;;;;;10408029;28;20149;-75
2024/04/05 13:38:00;;;;;;;1.60;0.60;;;;;;;;;;10408384;28;20612;-75
2024/04/05 13:43:02;;;;;;;1.70;0.75;;;;;;;;;;10407632;28;20144;-75
2024/04/05 13:48:06;;;;;;;2.58;1.02;;;;;;;;;;10399961;28;20048;-75
2024/04/05 13:53:10;;;;;;;2.38;0.80;;;;;;;;;;10416641;28;20041;-75
2024/04/05 13:58:12;;;;;;;1.95;0.70;;;;;;;;;;10405997;28;20057;-75
2024/04/05 14:03:15;;;;;;;2.17;0.80;;;;;;;;;;10369698;28;20049;-75
2024/04/05 14:08:19;;;;;;;2.45;0.90;;;;;;;;;;10395264;28;20405;-75
2024/04/05 14:13:22;;;;;;;3.20;1.02;;;;;;;;;;10393114;28;20419;-75
2024/04/05 14:18:25;;;;;;;1.55;0.80;;;;;;;;;;10396230;28;20497;-75
2024/04/05 14:23:29;;;;;;;2.47;0.80;;;;;;;;;;10396811;28;20057;-75
2024/04/05 14:28:31;;;;;;;2.25;0.70;;;;;;;;;;10397622;28;20041;-75
2024/04/05 14:33:35;;;;;;;3.63;0.90;;;;;;;;;;10395509;28;20065;-75
2024/04/05 14:38:39;;;;;;;3.67;1.02;;;;;;;;;;10391568;28;20046;-75
2024/04/05 14:43:43;;;;;;;2.03;0.80;;;;;;;;;;10392522;28;20610;-75
2024/04/05 14:48:46;;;;;;;1.08;0.52;;;;;;;;;;10394271;28;20049;-75
2024/04/05 14:53:51;;;;;;;3.60;1.27;;;;;;;;;;10389243;28;20727;-75
2024/04/05 14:58:55;;;;;;;3.28;0.77;;;;;;;;;;10390202;28;20050;-75
2024/04/05 15:03:57;;;;;;;3.03;1.33;;;;;;;;;;10390704;28;20042;-75
2024/04/05 15:09:02;;;;;;;3.05;0.60;;;;;;;;;;10386359;28;20205;-74
2024/04/05 15:14:05;;;;;;;2.25;0.70;;;;;;;;;;10381826;28;20064;-75
2024/04/05 15:19:07;;;;;;;1.20;0.65;;;;;;;;;;10386748;28;20047;-75
2024/04/05 15:24:13;;;;;;;1.02;0.63;;;;;;;;;;10390736;28;20048;-75
2024/04/05 15:29:15;;;;;;;1.10;0.70;;;;;;;;;;10393863;28;20072;-75
2024/04/05 15:34:18;;;;;;;2.25;0.95;;;;;;;;;;10368423;28;20044;-75
2024/04/05 15:39:22;;;;;;;1.65;0.63;;;;;;;;;;10390391;28;20045;-75
2024/04/05 15:44:24;;;;;;;1.92;0.80;;;;;;;;;;10391822;28;20404;-75
2024/04/05 15:49:28;;;;;;;1.70;0.60;;;;;;;;;;10390540;28;20069;-75
2024/04/05 15:54:34;;;;;;;2.42;0.68;;;;;;;;;;10375617;28;20528;-74
2024/04/05 15:59:37;;;;;;;2.30;0.57;;;;;;;;;;10393211;28;20049;-75
2024/04/05 16:04:42;;;;;;;1.13;0.60;;;;;;;;;;10391606;28;20057;-75
2024/04/05 16:09:49;;;;;;;2.05;0.88;;;;;;;;;;10389023;28;20049;-75
2024/04/05 16:14:51;;;;;;;2.42;0.80;;;;;;;;;;10387881;28;20034;-75
2024/04/05 16:19:53;;;;;;;1.20;0.50;;;;;;;;;;10388377;28;20054;-75
2024/04/05 16:24:57;;;;;;;2.08;0.70;;;;;;;;;;10371445;28;20078;-75
2024/04/05 16:30:00;;;;;;;1.88;0.70;;;;;;;;;;10392874;28;20053;-75
2024/04/05 16:35:03;;;;;;;2.08;0.80;;;;;;;;;;10392292;28;20103;-75
2024/04/05 16:40:08;;;;;;;1.13;0.43;;;;;;;;;;10386895;28;20104;-75
2024/04/05 16:45:12;;;;;;;1.80;0.70;;;;;;;;;;10388419;28;20045;-75
2024/04/05 16:50:14;;;;;;;1.50;0.63;;;;;;;;;;10373754;28;20049;-75
2024/04/05 16:55:18;;;;;;;1.17;0.60;;;;;;;;;;10388426;28;20045;-75
2024/04/05 17:00:21;;;;;;;2.35;0.55;;;;;;;;;;10385004;28;20042;-75
2024/04/05 17:05:29;;;;;;;1.38;0.60;;;;;;;;;;10375678;28;20409;-75
2024/04/05 17:10:36;;;;;;;1.10;0.60;;;;;;;;;;10372858;28;20062;-75
2024/04/05 17:15:39;;;;;;;0.82;0.50;;;;;;;;;;10368658;28;20056;-75
2024/04/05 17:33:27;;;;;;;0.77;0.43;;;;;;;;;;10182853;29;20054;-82
2024/04/05 17:38:29;;;;;;;1.33;0.65;;;;;;;;;;10162550;28;20055;-82
2024/04/05 17:43:31;;;;;;;2.78;0.70;;;;;;;;;;10166362;29;20743;-82
2024/04/05 17:48:35;;;;;;;2.17;0.50;;;;;;;;;;10190729;29;20055;-82
2024/04/05 17:53:38;;;;;;;1.10;0.60;;;;;;;;;;10186906;29;20058;-82
2024/04/05 17:58:40;;;;;;;0.75;0.50;;;;;;;;;;10189083;29;20047;-83
2024/04/05 18:03:44;;;;;;;2.58;0.60;;;;;;;;;;10189593;28;20061;-82
2024/04/05 18:08:47;;;;;;;0.77;0.40;;;;;;;;;;10179042;28;20137;-83
2024/04/05 18:13:49;;;;;;;1.17;0.57;;;;;;;;;;10213058;28;21065;-82
2024/04/05 18:18:53;;;;;;;0.93;0.50;;;;;;;;;;10225524;28;20049;-83
2024/04/05 18:23:56;;;;;;;1.50;0.60;;;;;;;;;;10218878;28;20051;-83
2024/04/05 18:29:00;;;;;;;1.33;0.63;;;;;;;;;;10231620;28;20051;-83
2024/04/05 18:34:07;;;;;;;0.75;0.43;;;;;;;;;;10214521;28;20138;-83
2024/04/05 18:39:11;;;;;;;2.60;0.90;;;;;;;;;;10217996;28;20051;-83
2024/04/05 18:44:13;;;;;;;1.63;1.00;;;;;;;;;;10228049;28;20055;-83
2024/04/05 18:49:17;;;;;;;2.10;0.93;;;;;;;;;;10234931;28;20116;-83
2024/04/05 18:54:19;;;;;;;2.30;0.70;;;;;;;;;;10211771;28;20187;-82
2024/04/05 18:59:22;;;;;;;0.85;0.47;;;;;;;;;;10193035;29;20058;-83
2024/04/05 19:04:26;;;;;;;1.65;0.60;;;;;;;;;;10199231;29;20726;-83
2024/04/05 19:09:30;;;;;;;0.98;0.60;;;;;;;;;;10198369;28;20074;-83
2024/04/05 19:14:33;;;;;;;2.00;0.90;;;;;;;;;;10203676;29;20071;-83
2024/04/05 19:19:36;;;;;;;1.45;0.80;;;;;;;;;;10201587;29;20459;-83
2024/04/05 19:24:40;;;;;;;3.17;0.90;;;;;;;;;;10203940;29;20074;-83
2024/04/05 19:29:42;;;;;;;3.70;0.77;;;;;;;;;;10203392;29;20964;-82
2024/04/05 19:34:47;;;;;;;3.00;1.20;;;;;;;;;;10179271;29;20541;-82
2024/04/05 19:39:55;;;;;;;3.20;0.90;;;;;;;;;;10188285;29;20056;-82
2024/04/05 19:44:58;;;;;;;2.78;1.33;;;;;;;;;;10174984;29;20040;-83
2024/04/05 19:50:02;;;;;;;4.40;1.35;;;;;;;;;;10193006;29;20046;-82
2024/04/05 19:55:05;;;;;;;1.55;1.00;;;;;;;;;;10173446;29;20756;-82
2024/04/05 20:00:10;;;;;;;3.80;1.33;;;;;;;;;;10173798;29;20044;-83
2024/04/05 20:05:17;;;;;;;2.35;1.00;;;;;;;;;;10167537;29;20072;-83
2024/04/05 20:10:19;;;;;;;3.65;1.35;;;;;;;;;;10178533;29;20074;-82
2024/04/05 20:15:21;;;;;;;2.58;1.00;;;;;;;;;;10166811;29;20423;-83
2024/04/05 20:20:25;;;;;;;1.50;0.80;;;;;;;;;;10175395;29;21077;-82
2024/04/05 20:25:28;;;;;;;1.30;0.90;;;;;;;;;;10177738;29;20047;-83
2024/04/05 20:36:06;;;;;;;4.22;1.10;;;;;;;;;;10119010;29;20043;-83
2024/04/05 20:41:09;;;;;;;3.17;0.90;;;;;;;;;;10166065;29;20048;-83
2024/04/05 20:46:11;;;;;;;2.13;0.85;;;;;;;;;;10170449;29;20063;-83
2024/04/05 20:51:15;;;;;;;5.25;1.20;;;;;;;;;;10182579;29;20044;-83
2024/04/05 20:56:18;;;;;;;1.73;1.00;;;;;;;;;;10177713;29;20048;-83
2024/04/05 21:01:21;;;;;;;1.63;0.90;;;;;;;;;;10187464;29;20051;-82
2024/04/05 21:06:25;;;;;;;4.47;0.98;;;;;;;;;;10182155;29;21741;-83
2024/04/05 21:11:27;;;;;;;3.05;1.23;;;;;;;;;;10184034;29;20691;-83
2024/04/05 21:16:30;;;;;;;1.30;0.90;;;;;;;;;;10175073;29;20756;-82
2024/04/05 21:21:34;;;;;;;3.15;1.00;;;;;;;;;;10193817;29;20044;-82
2024/04/05 21:26:36;;;;;;;2.08;1.00;;;;;;;;;;10196692;29;20044;-82
2024/04/05 21:31:38;;;;;;;3.67;0.82;;;;;;;;;;10178751;29;20050;-82
2024/04/05 21:36:42;;;;;;;2.05;0.93;;;;;;;;;;10187831;29;20048;-83
2024/04/05 21:41:45;;;;;;;1.30;0.75;;;;;;;;;;10192438;29;22114;-83
2024/04/05 21:46:47;;;;;;;1.38;0.88;;;;;;;;;;10195870;29;20134;-82
2024/04/05 21:51:51;;;;;;;2.60;0.90;;;;;;;;;;10161441;29;20046;-82
2024/04/05 21:56:55;;;;;;;5.45;1.55;;;;;;;;;;10173091;29;20047;-83
2024/04/05 22:01:57;;;;;;;1.13;0.80;;;;;;;;;;10184055;29;20044;-82
2024/04/05 22:07:03;;;;;;;1.83;0.70;;;;;;;;;;10213455;28;20053;-82
2024/04/05 22:12:06;;;;;;;3.00;0.50;;;;;;;;;;10224655;28;20094;-83
2024/04/05 22:17:08;;;;;;;1.90;0.90;;;;;;;;;;10208127;28;20724;-83
2024/04/05 22:22:12;;;;;;;1.27;0.50;;;;;;;;;;10214370;28;20051;-82
2024/04/05 22:27:15;;;;;;;0.35;0.35;;;;;;;;;;10214838;28;20058;-82
2024/04/05 22:32:18;;;;;;;1.23;0.57;;;;;;;;;;10237051;28;20073;-82
2024/04/05 22:37:21;;;;;;;1.10;0.30;;;;;;;;;;10227800;28;20051;-82
2024/04/05 22:42:24;;;;;;;1.58;0.50;;;;;;;;;;10210017;28;20109;-82
2024/04/05 22:47:26;;;;;;;2.33;0.57;;;;;;;;;;10195212;28;20051;-82
2024/04/05 22:52:30;;;;;;;0.30;0.30;;;;;;;;;;10211784;28;20054;-82
2024/04/05 22:57:32;;;;;;;0.40;0.30;;;;;;;;;;10228067;28;20055;-83
2024/04/05 23:02:35;;;;;;;1.35;0.60;;;;;;;;;;10171881;29;20040;-82
2024/04/05 23:07:39;;;;;;;0.77;0.45;;;;;;;;;;10203953;28;20242;-83
2024/04/05 23:12:41;;;;;;;0.63;0.40;;;;;;;;;;10203840;28;20052;-82
2024/04/05 23:17:44;;;;;;;1.55;0.80;;;;;;;;;;10192188;29;20058;-82
2024/04/05 23:22:47;;;;;;;1.48;0.75;;;;;;;;;;10173279;29;20059;-82
2024/04/05 23:27:50;;;;;;;2.25;0.60;;;;;;;;;;10221405;28;20039;-82
2024/04/05 23:32:52;;;;;;;1.10;0.40;;;;;;;;;;10178109;29;20402;-83
2024/04/05 23:37:56;;;;;;;1.67;0.50;;;;;;;;;;10175116;29;20407;-83
2024/04/05 23:42:58;;;;;;;0.82;0.50;;;;;;;;;;10177790;29;20129;-82
2024/04/05 23:48:00;;;;;;;1.33;0.60;;;;;;;;;;10176839;29;20051;-82
2024/04/05 23:53:04;;;;;;;2.03;0.95;;;;;;;;;;10170702;29;20047;-83
2024/04/05 23:58:07;;;;;;;1.55;0.80;;;;;;;;;;10145781;29;20055;-82
